createdAt,value
2019-01-15T00:00:37.836Z,19
2019-01-15T00:01:37.863Z,19
2019-01-15T00:02:37.698Z,19
2019-01-15T00:03:38.059Z,19
2019-01-15T00:04:38.439Z,19
2019-01-15T00:05:37.711Z,19
2019-01-15T00:06:37.494Z,18.75
2019-01-15T00:07:38.101Z,19
2019-01-15T00:08:38.359Z,18.75
2019-01-15T00:09:37.936Z,18.75
2019-01-15T00:10:37.807Z,18.75
2019-01-15T00:11:37.742Z,18.75
2019-01-15T00:12:38.582Z,18.75
2019-01-15T00:13:37.541Z,18.75
2019-01-15T00:14:37.714Z,18.75
2019-01-15T00:15:37.594Z,18.75
2019-01-15T00:16:38.083Z,18.75
2019-01-15T00:17:37.896Z,18.75
2019-01-15T00:18:39.497Z,18.75
2019-01-15T00:19:37.998Z,18.75
2019-01-15T00:20:37.455Z,18.75
2019-01-15T00:21:37.621Z,18.75
2019-01-15T00:22:37.834Z,18.75
2019-01-15T00:23:37.810Z,18.75
2019-01-15T00:24:37.603Z,18.75
2019-01-15T00:25:37.610Z,18.75
2019-01-15T00:26:38.289Z,18.75
2019-01-15T00:27:37.754Z,18.75
2019-01-15T00:28:37.617Z,18.75
2019-01-15T00:29:37.722Z,18.75
2019-01-15T00:30:37.984Z,18.75
2019-01-15T00:31:38.025Z,18.75
2019-01-15T00:32:37.564Z,18.75
2019-01-15T00:33:37.595Z,18.75
2019-01-15T00:34:37.895Z,18.75
2019-01-15T00:35:37.855Z,18.75
2019-01-15T00:36:37.891Z,18.75
2019-01-15T00:37:37.881Z,18.75
2019-01-15T00:38:37.860Z,18.75
2019-01-15T00:39:37.592Z,18.75
2019-01-15T00:40:38.048Z,18.75
2019-01-15T00:41:37.827Z,18.75
2019-01-15T00:42:38.596Z,18.75
2019-01-15T00:43:38.507Z,18.75
2019-01-15T00:44:37.940Z,18.75
2019-01-15T00:45:38.098Z,18.75
2019-01-15T00:46:37.523Z,18.75
2019-01-15T00:47:37.541Z,18.75
2019-01-15T00:48:37.657Z,18.75
2019-01-15T00:49:37.801Z,18.75
2019-01-15T00:50:37.951Z,18.75
2019-01-15T00:51:37.624Z,18.75
2019-01-15T00:52:37.727Z,18.75
2019-01-15T00:53:37.677Z,18.75
2019-01-15T00:54:37.655Z,18.75
2019-01-15T00:55:37.629Z,18.75
2019-01-15T00:56:37.701Z,18.75
2019-01-15T00:57:37.814Z,18.75
2019-01-15T00:58:37.663Z,18.75
2019-01-15T00:59:37.644Z,18.75
2019-01-15T01:00:37.737Z,18.75
2019-01-15T01:01:37.632Z,18.75
2019-01-15T01:02:37.726Z,18.75
2019-01-15T01:03:37.729Z,18.75
2019-01-15T01:04:38.108Z,18.75
2019-01-15T01:05:37.962Z,18.75
2019-01-15T01:06:37.952Z,18.5
2019-01-15T01:07:37.925Z,18.75
2019-01-15T01:08:38.046Z,18.5
2019-01-15T01:09:37.597Z,18.5
2019-01-15T01:10:37.548Z,18.5
2019-01-15T01:11:37.592Z,18.5
2019-01-15T01:12:37.588Z,18.5
2019-01-15T01:13:37.744Z,18.5
2019-01-15T01:14:37.896Z,18.5
2019-01-15T01:15:38.302Z,18.5
2019-01-15T01:16:37.934Z,18.5
2019-01-15T01:17:37.683Z,18.5
2019-01-15T01:18:37.820Z,18.5
2019-01-15T01:19:38.212Z,18.5
2019-01-15T01:20:37.671Z,18.5
2019-01-15T01:21:37.875Z,18.5
2019-01-15T01:22:37.799Z,18.5
2019-01-15T01:23:37.593Z,18.5
2019-01-15T01:24:38.161Z,18.5
2019-01-15T01:25:37.978Z,18.5
2019-01-15T01:26:38.001Z,18.5
2019-01-15T01:27:37.961Z,18.5
2019-01-15T01:28:37.709Z,18.5
2019-01-15T01:29:37.851Z,18.5
2019-01-15T01:30:37.545Z,18.5
2019-01-15T01:31:38.117Z,18.5
2019-01-15T01:32:38.219Z,18.5
2019-01-15T01:33:37.898Z,18.5
2019-01-15T01:34:37.942Z,18.5
2019-01-15T01:35:37.913Z,18.5
2019-01-15T01:36:38.051Z,18.5
2019-01-15T01:37:39.347Z,18.5
2019-01-15T01:38:37.774Z,18.5
2019-01-15T01:39:37.736Z,18.5
2019-01-15T01:40:37.751Z,18.5
2019-01-15T01:41:37.879Z,18.5
2019-01-15T01:43:38.072Z,18.5
2019-01-15T01:44:37.676Z,18.5
2019-01-15T01:45:38.054Z,18.5
2019-01-15T01:46:37.930Z,18.5
2019-01-15T01:47:37.994Z,18.5
2019-01-15T01:48:38.117Z,18.5
2019-01-15T01:49:37.891Z,18.5
2019-01-15T01:50:37.747Z,18.5
2019-01-15T01:51:37.914Z,18.5
2019-01-15T01:52:38.295Z,18.5
2019-01-15T01:53:37.857Z,18.5
2019-01-15T01:54:37.862Z,18.5
2019-01-15T01:55:39.422Z,18.5
2019-01-15T01:56:38.372Z,18.5
2019-01-15T01:57:37.745Z,18.5
2019-01-15T01:58:37.922Z,18.5
2019-01-15T01:59:37.844Z,18.5
2019-01-15T02:00:37.875Z,18.5
2019-01-15T02:01:38.168Z,18.5
2019-01-15T02:02:37.449Z,18.5
2019-01-15T02:03:38.234Z,18.5
2019-01-15T02:04:37.610Z,18.5
2019-01-15T02:05:37.507Z,18.5
2019-01-15T02:06:37.858Z,18.5
2019-01-15T02:07:37.586Z,18.5
2019-01-15T02:08:37.944Z,18.5
2019-01-15T02:09:37.992Z,18.5
2019-01-15T02:10:37.868Z,18.5
2019-01-15T02:11:37.593Z,18.5
2019-01-15T02:12:38.033Z,18.5
2019-01-15T02:13:37.601Z,18.5
2019-01-15T02:14:37.785Z,18.5
2019-01-15T02:15:38.074Z,18.5
2019-01-15T02:16:37.586Z,18.5
2019-01-15T02:17:37.931Z,18.5
2019-01-15T02:18:38.012Z,18.25
2019-01-15T02:19:37.478Z,18.25
2019-01-15T02:20:37.557Z,18.25
2019-01-15T02:21:37.740Z,18.25
2019-01-15T02:22:37.585Z,18.25
2019-01-15T02:23:37.664Z,18.25
2019-01-15T02:24:37.724Z,18.25
2019-01-15T02:25:37.875Z,18.25
2019-01-15T02:26:38.200Z,18.25
2019-01-15T02:27:37.479Z,18.25
2019-01-15T02:28:37.892Z,18.25
2019-01-15T02:29:37.709Z,18.25
2019-01-15T02:30:37.572Z,18.25
2019-01-15T02:31:37.873Z,18.25
2019-01-15T02:32:37.933Z,18.25
2019-01-15T02:33:37.633Z,18.25
2019-01-15T02:34:37.961Z,18.25
2019-01-15T02:35:37.705Z,18.25
2019-01-15T02:36:37.972Z,18.25
2019-01-15T02:37:38.379Z,18.25
2019-01-15T02:38:37.624Z,18.25
2019-01-15T02:39:37.754Z,18.25
2019-01-15T02:40:37.818Z,18.25
2019-01-15T02:41:37.734Z,18.25
2019-01-15T02:42:47.464Z,18.25
2019-01-15T02:43:37.612Z,18.25
2019-01-15T02:44:37.618Z,18.25
2019-01-15T02:45:37.851Z,18.25
2019-01-15T02:46:37.654Z,18.25
2019-01-15T02:47:37.716Z,18.25
2019-01-15T02:48:37.952Z,18.25
2019-01-15T02:49:37.595Z,18.25
2019-01-15T02:50:37.766Z,18.25
2019-01-15T02:51:37.740Z,18.25
2019-01-15T02:52:37.680Z,18.25
2019-01-15T02:53:37.816Z,18.25
2019-01-15T02:54:37.781Z,18.25
2019-01-15T02:55:37.662Z,18.25
2019-01-15T02:56:37.698Z,18.25
2019-01-15T02:57:38.120Z,18.25
2019-01-15T02:58:38.478Z,18.25
2019-01-15T02:59:37.511Z,18.25
2019-01-15T03:00:37.926Z,18.25
2019-01-15T03:01:38.645Z,18.25
2019-01-15T03:02:37.552Z,18.25
2019-01-15T03:03:37.615Z,18.25
2019-01-15T03:04:37.761Z,18.25
2019-01-15T03:05:37.755Z,18.25
2019-01-15T03:06:37.624Z,18.25
2019-01-15T03:07:37.755Z,18.25
2019-01-15T03:08:38.358Z,18.25
2019-01-15T03:09:37.813Z,18.25
2019-01-15T03:10:37.388Z,18.25
2019-01-15T03:11:38.018Z,18.25
2019-01-15T03:12:38.104Z,18.25
2019-01-15T03:13:37.383Z,18.25
2019-01-15T03:14:37.615Z,18.25
2019-01-15T03:15:37.605Z,18.25
2019-01-15T03:16:37.834Z,18.25
2019-01-15T03:17:37.603Z,18.25
2019-01-15T03:18:37.605Z,18.25
2019-01-15T03:19:37.884Z,18.25
2019-01-15T03:20:39.525Z,18.25
2019-01-15T03:21:37.942Z,18.25
2019-01-15T03:22:37.664Z,18.25
2019-01-15T03:23:37.685Z,18.25
2019-01-15T03:24:37.757Z,18.25
2019-01-15T03:25:37.612Z,18.25
2019-01-15T03:26:37.794Z,18.25
2019-01-15T03:27:37.735Z,18.25
2019-01-15T03:28:37.574Z,18.25
2019-01-15T03:29:37.824Z,18.25
2019-01-15T03:30:38.137Z,18.25
2019-01-15T03:31:38.089Z,18.25
2019-01-15T03:32:37.855Z,18.25
2019-01-15T03:33:38.066Z,18.25
2019-01-15T03:34:37.728Z,18.25
2019-01-15T03:35:37.601Z,18.25
2019-01-15T03:36:38.002Z,18.25
2019-01-15T03:37:38.994Z,18.25
2019-01-15T03:38:39.545Z,18.25
2019-01-15T03:39:37.862Z,18
2019-01-15T03:40:37.773Z,18.25
2019-01-15T03:41:37.710Z,18
2019-01-15T03:42:37.946Z,18.25
2019-01-15T03:43:38.255Z,18
2019-01-15T03:44:37.415Z,18
2019-01-15T03:45:37.905Z,18
2019-01-15T03:46:38.287Z,18
2019-01-15T03:47:37.765Z,18
2019-01-15T03:48:37.624Z,18
2019-01-15T03:49:37.871Z,18
2019-01-15T03:50:37.789Z,18
2019-01-15T03:51:37.815Z,18
2019-01-15T03:52:37.647Z,18
2019-01-15T03:53:37.722Z,18
2019-01-15T03:54:37.663Z,18
2019-01-15T03:55:38.472Z,18
2019-01-15T03:56:37.743Z,18
2019-01-15T03:57:37.554Z,18
2019-01-15T03:58:37.944Z,18
2019-01-15T03:59:37.698Z,18
2019-01-15T04:00:37.623Z,18
2019-01-15T04:01:37.781Z,18
2019-01-15T04:02:37.563Z,18
2019-01-15T04:03:37.678Z,18
2019-01-15T04:04:37.430Z,18
2019-01-15T04:05:37.728Z,18
2019-01-15T04:06:38.101Z,18
2019-01-15T04:07:37.438Z,18
2019-01-15T04:08:37.829Z,18
2019-01-15T04:09:37.639Z,18
2019-01-15T04:10:37.454Z,18
2019-01-15T04:11:37.988Z,18
2019-01-15T04:12:37.785Z,18
2019-01-15T04:13:37.404Z,18
2019-01-15T04:14:37.845Z,18
2019-01-15T04:15:37.789Z,18
2019-01-15T04:16:37.648Z,18
2019-01-15T04:17:37.666Z,18
2019-01-15T04:18:37.531Z,18
2019-01-15T04:19:37.677Z,18
2019-01-15T04:20:37.879Z,18
2019-01-15T04:21:37.681Z,18
2019-01-15T04:22:37.662Z,18
2019-01-15T04:23:37.706Z,18
2019-01-15T04:24:37.406Z,18
2019-01-15T04:25:37.694Z,18
2019-01-15T04:26:37.832Z,18
2019-01-15T04:27:37.842Z,18
2019-01-15T04:28:38.434Z,18
2019-01-15T04:29:37.903Z,18
2019-01-15T04:30:37.854Z,18
2019-01-15T04:31:37.992Z,18
2019-01-15T04:32:37.706Z,18
2019-01-15T04:33:37.754Z,18
2019-01-15T04:34:37.919Z,18
2019-01-15T04:35:37.687Z,18
2019-01-15T04:36:37.656Z,18
2019-01-15T04:37:38.365Z,18
2019-01-15T04:38:37.611Z,18
2019-01-15T04:39:37.904Z,18
2019-01-15T04:40:37.662Z,18
2019-01-15T04:41:37.849Z,18
2019-01-15T04:42:37.616Z,18
2019-01-15T04:43:38.097Z,18
2019-01-15T04:44:37.509Z,18
2019-01-15T04:45:37.534Z,18
2019-01-15T04:46:37.477Z,18
2019-01-15T04:47:37.684Z,18
2019-01-15T04:48:37.561Z,18
2019-01-15T04:49:37.405Z,18
2019-01-15T04:50:37.817Z,18
2019-01-15T04:51:37.663Z,18
2019-01-15T04:52:37.998Z,18
2019-01-15T04:53:37.649Z,18
2019-01-15T04:54:37.740Z,18
2019-01-15T04:55:37.388Z,18
2019-01-15T04:56:37.820Z,18
2019-01-15T04:57:37.583Z,18
2019-01-15T04:58:37.414Z,18
2019-01-15T04:59:37.754Z,18
2019-01-15T05:00:37.698Z,18
2019-01-15T05:01:37.632Z,18
2019-01-15T05:02:37.997Z,18
2019-01-15T05:03:37.739Z,18
2019-01-15T05:04:37.918Z,18.25
2019-01-15T05:05:37.810Z,18
2019-01-15T05:06:37.477Z,18.25
2019-01-15T05:07:37.717Z,18.25
2019-01-15T05:08:38.110Z,18.25
2019-01-15T05:09:37.693Z,18.25
2019-01-15T05:10:37.891Z,18.25
2019-01-15T05:11:37.621Z,18.25
2019-01-15T05:12:37.463Z,18.25
2019-01-15T05:13:37.532Z,18.25
2019-01-15T05:14:37.636Z,18.25
2019-01-15T05:15:37.494Z,18.25
2019-01-15T05:16:37.805Z,18.25
2019-01-15T05:17:38.919Z,18.25
2019-01-15T05:18:37.615Z,18.25
2019-01-15T05:19:37.630Z,18.25
2019-01-15T05:20:37.736Z,18.25
2019-01-15T05:21:38.486Z,18.25
2019-01-15T05:22:37.707Z,18.25
2019-01-15T05:23:37.824Z,18.5
2019-01-15T05:24:37.850Z,18.5
2019-01-15T05:25:37.870Z,18.5
2019-01-15T05:26:37.981Z,18.5
2019-01-15T05:27:37.791Z,18.5
2019-01-15T05:28:37.675Z,18.5
2019-01-15T05:29:37.391Z,18.5
2019-01-15T05:30:37.792Z,18.5
2019-01-15T05:31:38.111Z,18.5
2019-01-15T05:32:37.646Z,18.5
2019-01-15T05:33:37.833Z,18.5
2019-01-15T05:34:37.922Z,18.5
2019-01-15T05:35:38.465Z,18.5
2019-01-15T05:36:37.994Z,18.5
2019-01-15T05:37:37.659Z,18.5
2019-01-15T05:38:38.019Z,18.5
2019-01-15T05:39:37.763Z,18.5
2019-01-15T05:40:38.043Z,18.5
2019-01-15T05:41:37.519Z,18.75
2019-01-15T05:42:38.521Z,18.75
2019-01-15T05:43:37.369Z,18.75
2019-01-15T05:44:37.854Z,18.75
2019-01-15T05:45:37.835Z,18.75
2019-01-15T05:46:37.702Z,18.75
2019-01-15T05:47:37.570Z,18.75
2019-01-15T05:48:37.632Z,18.75
2019-01-15T05:49:37.894Z,18.75
2019-01-15T05:50:37.772Z,18.75
2019-01-15T05:51:37.787Z,18.75
2019-01-15T05:52:37.725Z,18.75
2019-01-15T05:53:37.580Z,18.75
2019-01-15T05:54:37.646Z,18.75
2019-01-15T05:55:37.463Z,18.75
2019-01-15T05:56:37.734Z,18.75
2019-01-15T05:57:37.790Z,18.75
2019-01-15T05:58:37.962Z,18.75
2019-01-15T05:59:37.741Z,18.75
2019-01-15T06:00:37.443Z,19
2019-01-15T06:01:37.743Z,19
2019-01-15T06:02:37.654Z,19
2019-01-15T06:03:37.354Z,19
2019-01-15T06:04:37.663Z,19
2019-01-15T06:05:37.982Z,19
2019-01-15T06:06:37.737Z,19
2019-01-15T06:07:37.858Z,19
2019-01-15T06:08:37.925Z,19
2019-01-15T06:09:37.811Z,19
2019-01-15T06:10:37.754Z,19
2019-01-15T06:11:37.642Z,19
2019-01-15T06:12:37.871Z,19
2019-01-15T06:13:43.105Z,19
2019-01-15T06:14:37.577Z,19
2019-01-15T06:15:37.378Z,19
2019-01-15T06:16:37.905Z,19
2019-01-15T06:17:37.821Z,19
2019-01-15T06:18:39.399Z,19
2019-01-15T06:19:39.522Z,19
2019-01-15T06:20:37.687Z,19
2019-01-15T06:21:37.611Z,19
2019-01-15T06:22:37.397Z,19
2019-01-15T06:23:37.832Z,19
2019-01-15T06:24:37.651Z,19.25
2019-01-15T06:25:37.982Z,19.25
2019-01-15T06:26:37.629Z,19.25
2019-01-15T06:27:39.425Z,19.25
2019-01-15T06:28:39.241Z,19.25
2019-01-15T06:29:37.504Z,19.25
2019-01-15T06:30:37.616Z,19
2019-01-15T06:31:37.829Z,19
2019-01-15T06:32:37.707Z,18.75
2019-01-15T06:33:38.617Z,18.75
2019-01-15T06:34:38.891Z,18.5
2019-01-15T06:35:39.419Z,18.5
2019-01-15T06:36:39.070Z,18.25
2019-01-15T06:37:37.691Z,18.25
2019-01-15T06:38:37.698Z,18.25
2019-01-15T06:39:37.930Z,18.25
2019-01-15T06:40:37.461Z,18.25
2019-01-15T06:41:38.031Z,18.5
2019-01-15T06:42:37.908Z,18.5
2019-01-15T06:43:37.684Z,18.5
2019-01-15T06:44:37.750Z,18.5
2019-01-15T06:45:38.339Z,18.5
2019-01-15T06:46:38.027Z,18.5
2019-01-15T06:47:37.465Z,18.5
2019-01-15T06:48:37.960Z,18.5
2019-01-15T06:49:37.447Z,18.75
2019-01-15T06:50:37.509Z,18.75
2019-01-15T06:51:37.654Z,18.75
2019-01-15T06:52:37.634Z,18.75
2019-01-15T06:53:37.854Z,18.75
2019-01-15T06:54:37.587Z,18.75
2019-01-15T06:55:37.309Z,18.75
2019-01-15T06:56:37.629Z,18.75
2019-01-15T06:57:37.910Z,18.75
2019-01-15T06:58:37.779Z,18.75
2019-01-15T06:59:37.464Z,18.75
2019-01-15T07:00:38.523Z,18.75
2019-01-15T07:01:37.738Z,18.75
2019-01-15T07:02:37.969Z,18.75
2019-01-15T07:03:38.295Z,18.75
2019-01-15T07:04:44.255Z,18.75
2019-01-15T07:05:37.553Z,18.75
2019-01-15T07:06:37.378Z,18.75
2019-01-15T07:07:37.893Z,18.75
2019-01-15T07:08:37.636Z,18.75
2019-01-15T07:09:37.700Z,18.75
2019-01-15T07:10:38.509Z,18.75
2019-01-15T07:11:37.842Z,18.75
2019-01-15T07:12:39.328Z,18.75
2019-01-15T07:13:37.671Z,18.75
2019-01-15T07:14:37.583Z,19
2019-01-15T07:15:37.711Z,18.75
2019-01-15T07:16:37.839Z,19
2019-01-15T07:17:37.709Z,19
2019-01-15T07:18:37.756Z,19
2019-01-15T07:19:37.768Z,19
2019-01-15T07:20:38.181Z,19
2019-01-15T07:21:37.675Z,19
2019-01-15T07:22:37.538Z,18.75
2019-01-15T07:23:37.699Z,19
2019-01-15T07:24:38.010Z,19
2019-01-15T07:25:37.570Z,19
2019-01-15T07:26:37.650Z,19
2019-01-15T07:27:37.775Z,19
2019-01-15T07:28:37.856Z,19
2019-01-15T07:29:37.817Z,19
2019-01-15T07:30:37.609Z,19
2019-01-15T07:31:37.445Z,19
2019-01-15T07:32:37.415Z,19
2019-01-15T07:33:37.363Z,19
2019-01-15T07:34:37.748Z,19
2019-01-15T07:35:37.396Z,19
2019-01-15T07:36:37.465Z,19
2019-01-15T07:37:37.753Z,19
2019-01-15T07:38:37.404Z,19
2019-01-15T07:39:37.693Z,19
2019-01-15T07:40:37.647Z,19
2019-01-15T07:41:37.706Z,19
2019-01-15T07:42:37.494Z,19
2019-01-15T07:43:37.643Z,19
2019-01-15T07:44:37.690Z,19
2019-01-15T07:45:37.953Z,19
2019-01-15T07:46:37.298Z,19
2019-01-15T07:47:37.743Z,19
2019-01-15T07:48:37.782Z,19
2019-01-15T07:49:37.426Z,19
2019-01-15T07:50:37.864Z,19
2019-01-15T07:51:38.688Z,19
2019-01-15T07:52:37.616Z,19
2019-01-15T07:53:37.741Z,19
2019-01-15T07:54:37.571Z,19
2019-01-15T07:55:37.793Z,19
2019-01-15T07:56:37.907Z,19
2019-01-15T07:57:37.777Z,19
2019-01-15T07:58:37.564Z,19
2019-01-15T07:59:37.573Z,19
2019-01-15T08:00:37.758Z,19
2019-01-15T08:01:37.486Z,19
2019-01-15T08:02:37.742Z,19
2019-01-15T08:03:37.449Z,19
2019-01-15T08:04:37.839Z,19
2019-01-15T08:05:37.700Z,19
2019-01-15T08:06:37.779Z,19
2019-01-15T08:07:37.464Z,19
2019-01-15T08:08:37.584Z,19
2019-01-15T08:09:37.450Z,19
2019-01-15T08:10:37.826Z,19
2019-01-15T08:11:37.837Z,19
2019-01-15T08:12:37.859Z,19
2019-01-15T08:13:37.437Z,19
2019-01-15T08:14:37.577Z,19
2019-01-15T08:15:37.646Z,19
2019-01-15T08:16:37.779Z,19
2019-01-15T08:17:37.711Z,19
2019-01-15T08:18:37.652Z,19
2019-01-15T08:19:37.526Z,19
2019-01-15T08:20:37.387Z,19
2019-01-15T08:21:37.678Z,19
2019-01-15T08:22:37.926Z,19
2019-01-15T08:23:37.767Z,19
2019-01-15T08:24:37.790Z,19
2019-01-15T08:25:37.692Z,19
2019-01-15T08:26:37.426Z,19
2019-01-15T08:27:37.497Z,19
2019-01-15T08:28:37.903Z,19
2019-01-15T08:29:37.721Z,19
2019-01-15T08:30:37.453Z,19
2019-01-15T08:31:38.080Z,19
2019-01-15T08:32:37.474Z,19
2019-01-15T08:33:37.854Z,19
2019-01-15T08:34:37.792Z,19
2019-01-15T08:35:37.595Z,19
2019-01-15T08:36:37.618Z,19
2019-01-15T08:37:39.214Z,19
2019-01-15T08:38:37.858Z,19
2019-01-15T08:39:38.106Z,19
2019-01-15T08:40:37.318Z,19
2019-01-15T08:41:37.669Z,19
2019-01-15T08:42:37.471Z,19
2019-01-15T08:43:37.488Z,19
2019-01-15T08:44:37.428Z,19
2019-01-15T08:45:37.666Z,19
2019-01-15T08:46:37.669Z,19
2019-01-15T08:47:37.829Z,19
2019-01-15T08:48:37.772Z,19
2019-01-15T08:49:37.683Z,19
2019-01-15T08:50:37.872Z,19
2019-01-15T08:51:37.672Z,19
2019-01-15T08:52:39.276Z,19
2019-01-15T08:53:37.537Z,19
2019-01-15T08:54:37.879Z,19
2019-01-15T08:55:37.984Z,19
2019-01-15T08:56:37.539Z,19
2019-01-15T08:57:37.649Z,19
2019-01-15T08:58:39.304Z,19
2019-01-15T08:59:37.564Z,19
2019-01-15T09:00:38.489Z,19
2019-01-15T09:01:37.479Z,19
2019-01-15T09:02:37.566Z,19
2019-01-15T09:03:37.575Z,19
2019-01-15T09:04:38.507Z,19
2019-01-15T09:05:38.076Z,19
2019-01-15T09:06:37.723Z,19
2019-01-15T09:07:37.413Z,19
2019-01-15T09:08:37.720Z,19
2019-01-15T09:09:37.719Z,19
2019-01-15T09:10:37.720Z,19
2019-01-15T09:11:37.737Z,19
2019-01-15T09:12:37.613Z,19
2019-01-15T09:13:37.685Z,19
2019-01-15T09:14:37.683Z,19
2019-01-15T09:15:37.667Z,19
2019-01-15T09:16:37.734Z,19
2019-01-15T09:17:37.470Z,19
2019-01-15T09:18:37.811Z,19
2019-01-15T09:19:37.474Z,19.25
2019-01-15T09:20:37.631Z,19.25
2019-01-15T09:21:37.478Z,19.25
2019-01-15T09:22:37.388Z,19.25
2019-01-15T09:23:37.557Z,19.25
2019-01-15T09:24:37.807Z,19.25
2019-01-15T09:25:37.767Z,19.25
2019-01-15T09:26:37.945Z,19.25
2019-01-15T09:27:37.793Z,19.25
2019-01-15T09:28:37.374Z,19.25
2019-01-15T09:29:37.534Z,19.25
2019-01-15T09:30:37.504Z,19.25
2019-01-15T09:31:37.336Z,19.25
2019-01-15T09:32:37.976Z,19.25
2019-01-15T09:33:37.694Z,19.25
2019-01-15T09:34:37.509Z,19.5
2019-01-15T09:35:37.907Z,19.5
2019-01-15T09:36:38.048Z,19.5
2019-01-15T09:37:37.783Z,19.5
2019-01-15T09:38:37.993Z,19.5
2019-01-15T09:39:38.024Z,19.5
2019-01-15T09:40:38.385Z,19.5
2019-01-15T09:41:37.718Z,19.5
2019-01-15T09:42:37.814Z,19.5
2019-01-15T09:43:37.697Z,19.5
2019-01-15T09:44:37.912Z,19.5
2019-01-15T09:45:38.060Z,19.5
2019-01-15T09:46:37.685Z,19.5
2019-01-15T09:47:37.485Z,19.5
2019-01-15T09:48:37.677Z,19.5
2019-01-15T09:49:37.677Z,19.5
2019-01-15T09:50:37.673Z,19.5
2019-01-15T09:51:39.485Z,19.75
2019-01-15T09:52:37.247Z,19.75
2019-01-15T09:53:38.301Z,19.75
2019-01-15T09:54:37.554Z,19.75
2019-01-15T09:55:38.065Z,19.75
2019-01-15T09:56:37.718Z,19.75
2019-01-15T09:57:37.456Z,19.75
2019-01-15T09:58:37.491Z,19.75
2019-01-15T09:59:37.520Z,19.75
2019-01-15T10:00:37.279Z,19.75
2019-01-15T10:01:37.504Z,19.75
2019-01-15T10:02:38.552Z,19.75
2019-01-15T10:03:37.276Z,19.75
2019-01-15T10:04:37.819Z,19.75
2019-01-15T10:05:39.430Z,19.75
2019-01-15T10:06:38.019Z,19.75
2019-01-15T10:07:37.609Z,19.75
2019-01-15T10:08:39.275Z,19.75
2019-01-15T10:09:38.476Z,19.75
2019-01-15T10:10:37.550Z,19.75
2019-01-15T10:11:39.410Z,19.75
2019-01-15T10:12:37.506Z,19.75
2019-01-15T10:13:38.708Z,19.75
2019-01-15T10:14:41.864Z,19.75
2019-01-15T10:15:37.856Z,20
2019-01-15T10:16:37.432Z,20
2019-01-15T10:17:37.570Z,20
2019-01-15T10:18:37.790Z,20
2019-01-15T10:19:37.937Z,20
2019-01-15T10:20:37.289Z,20
2019-01-15T10:21:37.341Z,20
2019-01-15T10:22:37.821Z,20
2019-01-15T10:23:37.422Z,20
2019-01-15T10:24:37.456Z,20
2019-01-15T10:25:37.617Z,20
2019-01-15T10:26:37.531Z,20
2019-01-15T10:27:37.455Z,20
2019-01-15T10:28:37.762Z,20
2019-01-15T10:29:37.704Z,20
2019-01-15T10:30:37.674Z,20
2019-01-15T10:31:37.887Z,20
2019-01-15T10:32:37.720Z,20
2019-01-15T10:33:37.485Z,20
2019-01-15T10:34:37.871Z,20
2019-01-15T10:35:37.401Z,20
2019-01-15T10:36:37.461Z,20
2019-01-15T10:37:37.616Z,20
2019-01-15T10:38:38.518Z,20
2019-01-15T10:39:37.620Z,20
2019-01-15T10:40:37.749Z,20
2019-01-15T10:41:37.355Z,20
2019-01-15T10:42:37.684Z,20
2019-01-15T10:43:37.997Z,20
2019-01-15T10:44:37.842Z,20
2019-01-15T10:45:37.467Z,20
2019-01-15T10:46:37.687Z,20
2019-01-15T10:47:37.518Z,20
2019-01-15T10:48:37.527Z,20
2019-01-15T10:49:37.671Z,20
2019-01-15T10:50:37.357Z,20
2019-01-15T10:51:37.588Z,20
2019-01-15T10:52:37.723Z,20
2019-01-15T10:53:37.675Z,20
2019-01-15T10:54:37.794Z,20
2019-01-15T10:55:37.632Z,20
2019-01-15T10:56:37.419Z,20
2019-01-15T10:57:37.457Z,20
2019-01-15T10:58:37.823Z,20
2019-01-15T10:59:37.667Z,20
2019-01-15T11:00:37.428Z,20
2019-01-15T11:01:37.779Z,20
2019-01-15T11:02:38.220Z,20
2019-01-15T11:03:37.362Z,20
2019-01-15T11:04:37.706Z,20
2019-01-15T11:05:37.702Z,20
2019-01-15T11:06:37.452Z,20
2019-01-15T11:07:37.938Z,20
2019-01-15T11:08:37.639Z,20
2019-01-15T11:09:37.358Z,20
2019-01-15T11:10:37.331Z,20
2019-01-15T11:11:37.574Z,20
2019-01-15T11:12:37.628Z,20
2019-01-15T11:13:37.313Z,20
2019-01-15T11:14:37.402Z,20
2019-01-15T11:15:43.715Z,20
2019-01-15T11:16:37.818Z,20
2019-01-15T11:17:37.761Z,20
2019-01-15T11:18:37.249Z,20
2019-01-15T11:19:37.373Z,20
2019-01-15T11:20:37.350Z,20
2019-01-15T11:21:38.152Z,20
2019-01-15T11:22:37.710Z,20
2019-01-15T11:23:37.984Z,20
2019-01-15T11:24:38.683Z,20
2019-01-15T11:25:37.899Z,20
2019-01-15T11:26:37.622Z,20
2019-01-15T11:27:37.718Z,20
2019-01-15T11:28:39.061Z,20
2019-01-15T11:29:37.674Z,20
2019-01-15T11:30:38.044Z,20
2019-01-15T11:31:37.580Z,20
2019-01-15T11:32:38.882Z,20
2019-01-15T11:33:37.750Z,20
2019-01-15T11:34:37.709Z,20
2019-01-15T11:35:37.680Z,20
2019-01-15T11:36:38.239Z,20
2019-01-15T11:37:39.251Z,20
2019-01-15T11:38:37.871Z,20
2019-01-15T11:39:38.051Z,20
2019-01-15T11:40:37.488Z,20
2019-01-15T11:41:37.806Z,20
2019-01-15T11:42:37.472Z,20
2019-01-15T11:43:39.290Z,20
2019-01-15T11:44:37.419Z,20
2019-01-15T11:45:37.442Z,20
2019-01-15T11:46:38.030Z,20
2019-01-15T11:47:37.718Z,20.25
2019-01-15T11:48:37.492Z,20.25
2019-01-15T11:49:37.780Z,20.25
2019-01-15T11:50:37.386Z,20.25
2019-01-15T11:51:37.360Z,20.25
2019-01-15T11:52:37.408Z,20.25
2019-01-15T11:53:37.730Z,20.25
2019-01-15T11:54:37.954Z,20.25
2019-01-15T11:55:37.354Z,20.25
2019-01-15T11:56:38.189Z,20.25
2019-01-15T11:57:37.890Z,20.25
2019-01-15T11:58:37.481Z,20.25
2019-01-15T11:59:37.694Z,20.25
2019-01-15T12:00:37.723Z,20.25
2019-01-15T12:01:37.443Z,20.25
2019-01-15T12:02:37.826Z,20.25
2019-01-15T12:03:37.380Z,20.25
2019-01-15T12:04:37.438Z,20.25
2019-01-15T12:05:37.900Z,20.25
2019-01-15T12:06:37.228Z,20.25
2019-01-15T12:07:37.590Z,20.25
2019-01-15T12:08:37.575Z,20.25
2019-01-15T12:09:38.385Z,20.25
2019-01-15T12:10:37.373Z,20.25
2019-01-15T12:11:37.509Z,20.25
2019-01-15T12:12:37.365Z,20.25
2019-01-15T12:13:37.703Z,20.25
2019-01-15T12:14:37.216Z,20.25
2019-01-15T12:15:37.728Z,20.25
2019-01-15T12:16:37.655Z,20.25
2019-01-15T12:17:37.629Z,20.25
2019-01-15T12:18:37.324Z,20.25
2019-01-15T12:19:37.610Z,20.25
2019-01-15T12:20:39.570Z,20.25
2019-01-15T12:21:38.016Z,20.25
2019-01-15T12:22:37.719Z,20.25
2019-01-15T12:23:37.357Z,20.25
2019-01-15T12:24:37.770Z,20.25
2019-01-15T12:25:37.554Z,20.25
2019-01-15T12:26:37.519Z,20.25
2019-01-15T12:27:37.976Z,20.25
2019-01-15T12:28:37.997Z,20.25
2019-01-15T12:29:37.471Z,20.25
2019-01-15T12:30:37.497Z,20.25
2019-01-15T12:31:37.729Z,20.25
2019-01-15T12:32:37.479Z,20.25
2019-01-15T12:33:37.490Z,20.25
2019-01-15T12:34:37.421Z,20.25
2019-01-15T12:35:37.476Z,20.25
2019-01-15T12:36:37.703Z,20.25
2019-01-15T12:37:37.710Z,20.25
2019-01-15T12:38:37.850Z,20.25
2019-01-15T12:39:37.747Z,20.25
2019-01-15T12:40:37.269Z,20.25
2019-01-15T12:41:37.737Z,20.25
2019-01-15T12:42:37.301Z,20.25
2019-01-15T12:43:37.430Z,20.25
2019-01-15T12:44:37.361Z,20.25
2019-01-15T12:45:37.465Z,20.25
2019-01-15T12:46:37.713Z,20.25
2019-01-15T12:47:37.779Z,20.25
2019-01-15T12:48:37.852Z,20.25
2019-01-15T12:49:37.744Z,20.25
2019-01-15T12:50:39.179Z,20.25
2019-01-15T12:51:37.829Z,20.25
2019-01-15T12:52:37.644Z,20.25
2019-01-15T12:53:37.267Z,20.25
2019-01-15T12:54:37.830Z,20.25
2019-01-15T12:55:37.715Z,20.25
2019-01-15T12:56:37.826Z,20.25
2019-01-15T12:57:37.298Z,20.25
2019-01-15T12:58:38.268Z,20.25
2019-01-15T12:59:37.491Z,20.25
2019-01-15T13:00:37.995Z,20.25
2019-01-15T13:01:37.804Z,20.25
2019-01-15T13:02:38.005Z,20.25
2019-01-15T13:03:37.892Z,20.25
2019-01-15T13:04:37.642Z,20.25
2019-01-15T13:05:37.429Z,20.25
2019-01-15T13:06:37.204Z,20.25
2019-01-15T13:07:37.121Z,20.25
2019-01-15T13:08:37.771Z,20.25
2019-01-15T13:09:39.204Z,20.25
2019-01-15T13:10:37.458Z,20.25
2019-01-15T13:11:37.392Z,20.25
2019-01-15T13:12:38.733Z,20.25
2019-01-15T13:13:37.292Z,20.25
2019-01-15T13:14:38.768Z,20.25
2019-01-15T13:15:39.304Z,20.25
2019-01-15T13:16:37.201Z,20.25
2019-01-15T13:17:37.721Z,20.25
2019-01-15T13:18:37.728Z,20.25
2019-01-15T13:19:37.409Z,20.25
2019-01-15T13:20:37.449Z,20.25
2019-01-15T13:21:37.381Z,20.25
2019-01-15T13:22:37.330Z,20.25
2019-01-15T13:23:37.712Z,20.25
2019-01-15T13:24:38.275Z,20.25
2019-01-15T13:25:37.840Z,20.25
2019-01-15T13:26:37.528Z,20.25
2019-01-15T13:27:37.445Z,20.25
2019-01-15T13:28:37.250Z,20.25
2019-01-15T13:29:38.265Z,20.25